createdAt,value
2022-08-01T03:47:32.918Z,22.30
2022-08-01T03:50:02.030Z,22.20
2022-08-01T03:52:30.028Z,22.10
2022-08-01T03:54:58.552Z,22.00
2022-08-01T03:57:35.547Z,22.10
2022-08-01T04:00:07.708Z,22.10
2022-08-01T04:02:35.370Z,22.10
2022-08-01T04:05:02.771Z,22.10
2022-08-01T04:07:31.294Z,22.00
2022-08-01T04:09:58.317Z,22.00
2022-08-01T04:12:25.390Z,22.00
2022-08-01T04:14:52.501Z,22.00
2022-08-01T04:17:19.469Z,22.00
2022-08-01T04:19:46.823Z,21.90
2022-08-01T04:22:14.964Z,21.90
2022-08-01T04:24:54.700Z,21.90
2022-08-01T04:27:50.510Z,21.90
2022-08-01T04:30:21.306Z,21.80
2022-08-01T04:32:48.725Z,21.80
2022-08-01T04:35:23.548Z,21.90
2022-08-01T04:38:07.491Z,21.90
2022-08-01T04:40:36.791Z,21.90
2022-08-01T04:43:03.988Z,21.90
2022-08-01T04:45:31.675Z,22.00
2022-08-01T04:47:58.848Z,21.90
2022-08-01T04:50:25.905Z,21.80
2022-08-01T04:52:52.969Z,21.60
2022-08-01T04:55:20.442Z,21.60
2022-08-01T04:57:47.534Z,21.60
2022-08-01T05:00:14.927Z,21.60
2022-08-01T05:02:41.906Z,21.50
2022-08-01T05:05:09.298Z,21.40
2022-08-01T05:07:45.466Z,21.40
2022-08-01T05:10:12.861Z,21.40
2022-08-01T05:12:39.922Z,21.50
2022-08-01T05:15:10.571Z,21.40
2022-08-01T05:17:43.443Z,21.40
2022-08-01T05:20:11.148Z,21.40
2022-08-01T05:22:38.486Z,21.40
2022-08-01T05:25:05.981Z,21.40
2022-08-01T05:27:33.888Z,21.40
2022-08-01T05:30:00.933Z,21.50
2022-08-01T05:32:30.460Z,21.50
2022-08-01T05:34:57.425Z,21.50
2022-08-01T05:37:24.436Z,22.00
2022-08-01T05:39:51.406Z,21.70
2022-08-01T05:42:18.458Z,21.80
2022-08-01T05:44:45.572Z,21.80
2022-08-01T05:47:12.603Z,21.80
2022-08-01T05:49:39.580Z,21.80
2022-08-01T05:52:06.903Z,21.90
2022-08-01T05:54:34.289Z,22.10
2022-08-01T05:57:02.603Z,22.20
2022-08-01T05:59:30.172Z,22.20
2022-08-01T06:01:57.408Z,22.30
2022-08-01T06:04:24.530Z,22.40
2022-08-01T06:06:51.518Z,22.50
2022-08-01T06:09:18.630Z,22.50
2022-08-01T06:11:45.628Z,22.70
2022-08-01T06:14:12.653Z,22.80
2022-08-01T06:16:39.638Z,22.80
2022-08-01T06:19:06.714Z,22.90
2022-08-01T06:21:33.731Z,23.10
2022-08-01T06:24:00.698Z,23.10
2022-08-01T06:26:27.738Z,23.20
2022-08-01T06:28:54.715Z,23.20
2022-08-01T06:31:21.695Z,23.30
2022-08-01T06:33:48.764Z,23.40
2022-08-01T06:36:15.758Z,23.40
2022-08-01T06:38:42.713Z,23.50
2022-08-01T06:41:09.709Z,23.50
2022-08-01T06:43:36.710Z,23.60
2022-08-01T06:46:03.743Z,23.70
2022-08-01T06:48:30.770Z,23.80
2022-08-01T06:51:09.683Z,23.90
2022-08-01T06:53:37.422Z,23.90
2022-08-01T06:56:05.070Z,23.90
2022-08-01T06:58:32.219Z,24.00
2022-08-01T07:00:59.551Z,24.00
2022-08-01T07:03:27.901Z,24.10
2022-08-01T07:06:13.859Z,24.20
2022-08-01T07:08:42.034Z,24.20
2022-08-01T07:11:09.002Z,24.30
2022-08-01T07:13:44.044Z,24.40
2022-08-01T07:16:13.564Z,24.50
2022-08-01T07:18:40.771Z,24.50
2022-08-01T07:21:16.808Z,24.60
2022-08-01T07:23:54.974Z,24.70
2022-08-01T07:26:22.966Z,24.70
2022-08-01T07:28:50.391Z,24.80
2022-08-01T07:31:17.461Z,24.80
2022-08-01T07:33:48.762Z,24.90
2022-08-01T07:36:16.849Z,24.90
2022-08-01T07:38:44.205Z,25.00
2022-08-01T07:41:11.208Z,25.00
2022-08-01T07:43:38.386Z,25.00
2022-08-01T07:46:05.725Z,25.00
2022-08-01T07:48:33.032Z,25.10
2022-08-01T07:51:00.068Z,25.10
2022-08-01T07:53:27.265Z,25.20
2022-08-01T07:55:54.270Z,25.30
2022-08-01T07:58:21.305Z,25.30
2022-08-01T08:00:48.444Z,25.30
2022-08-01T08:03:15.465Z,25.40
2022-08-01T08:05:58.557Z,25.50
2022-08-01T08:08:27.410Z,25.50
2022-08-01T08:10:54.436Z,25.60
2022-08-01T08:13:21.487Z,25.70
2022-08-01T08:15:48.783Z,25.70
2022-08-01T08:18:16.324Z,25.70
2022-08-01T08:20:43.502Z,25.80
2022-08-01T08:23:43.198Z,25.90
2022-08-01T08:26:11.651Z,26.00
2022-08-01T08:28:38.682Z,26.00
2022-08-01T08:31:08.031Z,26.00
2022-08-01T08:33:52.834Z,26.10
2022-08-01T08:36:19.853Z,26.10
2022-08-01T08:38:46.865Z,26.20
2022-08-01T08:41:17.954Z,26.30
2022-08-01T08:43:48.199Z,26.40
2022-08-01T08:46:15.628Z,26.40
2022-08-01T08:48:42.945Z,26.50
2022-08-01T08:51:11.945Z,26.50
2022-08-01T08:53:44.827Z,26.50
2022-08-01T08:56:13.549Z,26.50
2022-08-01T08:58:42.206Z,26.50
2022-08-01T09:01:09.612Z,26.60
2022-08-01T09:03:36.757Z,26.60
2022-08-01T09:06:04.057Z,26.70
2022-08-01T09:08:31.038Z,26.70
2022-08-01T09:10:58.008Z,26.80
2022-08-01T09:13:25.033Z,26.90
2022-08-01T09:15:56.229Z,26.90
2022-08-01T09:18:30.539Z,26.90
2022-08-01T09:21:09.949Z,26.90
2022-08-01T09:23:40.603Z,27.00
2022-08-01T09:26:31.872Z,27.00
2022-08-01T09:29:00.413Z,27.10
2022-08-01T09:31:38.284Z,27.20
2022-08-01T09:34:05.803Z,27.20
2022-08-01T09:36:45.599Z,27.30
2022-08-01T09:39:13.966Z,27.30
2022-08-01T09:41:41.014Z,27.40
2022-08-01T09:44:08.029Z,27.40
2022-08-01T09:46:35.643Z,27.40
2022-08-01T09:49:07.521Z,27.40
2022-08-01T09:52:00.192Z,27.50
2022-08-01T09:54:29.867Z,27.60
2022-08-01T09:57:08.795Z,27.60
2022-08-01T09:59:57.209Z,27.60
2022-08-01T10:02:28.094Z,27.60
2022-08-01T10:05:03.406Z,27.70
2022-08-01T10:07:43.874Z,27.80
2022-08-01T10:10:15.989Z,27.90
2022-08-01T10:12:44.482Z,28.00
2022-08-01T10:15:15.455Z,28.00
2022-08-01T10:17:51.126Z,28.10
2022-08-01T10:20:31.045Z,28.10
2022-08-01T10:23:00.574Z,28.10
2022-08-01T10:25:42.962Z,28.10
2022-08-01T10:28:14.529Z,28.20
2022-08-01T10:30:45.296Z,28.20
2022-08-01T10:33:15.360Z,28.20
2022-08-01T10:36:01.002Z,28.20
2022-08-01T10:38:28.824Z,28.40
2022-08-01T10:40:57.927Z,28.40
2022-08-01T10:43:24.954Z,28.40
2022-08-01T10:45:52.144Z,28.50
2022-08-01T10:48:20.815Z,28.50
2022-08-01T10:50:49.879Z,28.50
2022-08-01T10:53:30.864Z,28.60
2022-08-01T10:56:02.696Z,28.60
2022-08-01T10:58:39.436Z,28.60
2022-08-01T11:01:16.368Z,28.60
2022-08-01T11:03:56.506Z,28.70
2022-08-01T11:06:27.488Z,28.70
2022-08-01T11:08:55.588Z,28.80
2022-08-01T11:11:23.787Z,28.90
2022-08-01T11:14:10.479Z,28.90
2022-08-01T11:16:38.272Z,29.00
2022-08-01T11:19:05.597Z,29.00
2022-08-01T11:21:59.214Z,29.10
2022-08-01T11:24:46.617Z,29.10
2022-08-01T11:27:18.845Z,29.20
2022-08-01T11:30:07.932Z,29.20
2022-08-01T11:33:05.867Z,29.20
2022-08-01T11:35:33.218Z,29.30
2022-08-01T11:38:23.833Z,29.40
2022-08-01T11:41:12.694Z,29.40
2022-08-01T11:43:58.110Z,29.50
2022-08-01T11:46:44.675Z,29.60
2022-08-01T11:49:30.838Z,29.70
2022-08-01T11:52:11.456Z,29.70
2022-08-01T11:55:04.655Z,29.80
2022-08-01T11:57:35.624Z,29.80
2022-08-01T12:00:08.612Z,29.90
2022-08-01T12:02:36.009Z,29.90
2022-08-01T12:05:05.693Z,30.20
2022-08-01T12:07:36.410Z,30.00
2022-08-01T12:10:06.374Z,30.00
2022-08-01T12:12:34.153Z,30.10
2022-08-01T12:15:02.558Z,30.10
2022-08-01T12:17:33.991Z,30.20
2022-08-01T12:20:01.690Z,30.20
2022-08-01T12:22:28.745Z,30.30
2022-08-01T12:24:55.790Z,30.40
2022-08-01T12:27:29.907Z,30.40
2022-08-01T12:30:00.293Z,30.50
2022-08-01T12:32:35.634Z,30.50
2022-08-01T12:35:07.382Z,30.60
2022-08-01T12:37:44.674Z,30.60
2022-08-01T12:40:15.858Z,30.60
2022-08-01T12:42:43.538Z,30.60
2022-08-01T12:45:11.793Z,30.60
2022-08-01T12:47:39.449Z,30.50
2022-08-01T12:50:07.411Z,30.60
2022-08-01T12:52:34.515Z,30.60
2022-08-01T12:55:02.790Z,30.80
2022-08-01T12:57:30.503Z,30.80
2022-08-01T13:00:12.910Z,30.80
2022-08-01T13:02:40.585Z,30.80
2022-08-01T13:05:08.214Z,30.80
2022-08-01T13:07:46.197Z,30.80
2022-08-01T13:10:14.718Z,30.70
2022-08-01T13:12:51.370Z,30.50
2022-08-01T13:15:18.941Z,30.60
2022-08-01T13:17:46.042Z,30.60
2022-08-01T13:20:22.309Z,30.70
2022-08-01T13:22:49.300Z,30.70
2022-08-01T13:25:19.819Z,30.70
2022-08-01T13:27:53.690Z,30.70
2022-08-01T13:30:21.588Z,30.70
2022-08-01T13:32:58.590Z,30.70
2022-08-01T13:35:25.569Z,30.80
2022-08-01T13:37:52.786Z,30.80
2022-08-01T13:40:27.285Z,30.60
2022-08-01T13:42:57.619Z,30.60
2022-08-01T13:45:24.716Z,30.50
2022-08-01T13:48:04.085Z,30.60
2022-08-01T13:50:40.237Z,30.60
2022-08-01T13:53:09.849Z,30.70
2022-08-01T13:55:36.846Z,30.80
2022-08-01T13:58:04.300Z,30.80
2022-08-01T14:00:31.446Z,30.80
2022-08-01T14:02:58.432Z,30.90
2022-08-01T14:05:25.410Z,30.90
2022-08-01T14:07:56.568Z,31.00
2022-08-01T14:10:24.526Z,31.10
2022-08-01T14:12:51.653Z,31.10
2022-08-01T14:15:37.602Z,31.10
2022-08-01T14:18:06.314Z,31.00
2022-08-01T14:20:34.147Z,31.10
2022-08-01T14:23:01.291Z,31.20
2022-08-01T14:26:02.865Z,31.10
2022-08-01T14:28:15.362Z,31.10
2022-08-01T14:30:43.543Z,31.20
2022-08-01T14:33:11.065Z,31.20
2022-08-01T14:36:02.156Z,31.10
2022-08-01T14:38:29.191Z,31.00
2022-08-01T14:41:00.186Z,31.00
2022-08-01T14:43:32.246Z,31.00
2022-08-01T14:46:01.162Z,31.00
2022-08-01T14:48:28.166Z,31.10
2022-08-01T14:50:57.678Z,31.10
2022-08-01T14:53:24.664Z,31.20
2022-08-01T14:55:51.745Z,31.20
2022-08-01T14:58:18.743Z,31.10
2022-08-01T15:00:46.344Z,31.20
2022-08-01T15:03:13.623Z,31.10
2022-08-01T15:05:40.782Z,31.20
2022-08-01T15:08:07.881Z,31.20
2022-08-01T15:10:35.053Z,31.20
2022-08-01T15:13:02.686Z,31.30
2022-08-01T15:15:30.003Z,31.30
2022-08-01T15:17:57.185Z,31.30
2022-08-01T15:20:24.232Z,31.20
2022-08-01T15:22:51.294Z,31.20
2022-08-01T15:25:18.310Z,31.20
2022-08-01T15:27:45.369Z,31.20
2022-08-01T15:30:12.613Z,31.20
2022-08-01T15:32:39.634Z,31.10
2022-08-01T15:35:07.178Z,31.10
2022-08-01T15:37:34.167Z,31.10
2022-08-01T15:40:03.830Z,31.00
2022-08-01T15:42:30.973Z,31.00
2022-08-01T15:44:57.944Z,31.00
2022-08-01T15:47:25.244Z,31.00
2022-08-01T15:49:52.805Z,30.90
2022-08-01T15:52:21.351Z,31.00
2022-08-01T15:54:49.696Z,31.00
2022-08-01T15:57:16.912Z,31.00
2022-08-01T15:59:43.887Z,31.00
2022-08-01T16:02:11.549Z,31.00
2022-08-01T16:04:39.209Z,31.00
2022-08-01T16:07:06.549Z,31.00
2022-08-01T16:09:33.622Z,31.00
2022-08-01T16:12:00.658Z,31.00
2022-08-01T16:14:27.815Z,31.00
2022-08-01T16:16:54.852Z,30.90
2022-08-01T16:19:21.999Z,31.00
2022-08-01T16:21:49.063Z,30.90
2022-08-01T16:24:16.127Z,30.90
2022-08-01T16:26:43.173Z,30.80
2022-08-01T16:29:10.329Z,30.70
2022-08-01T16:31:42.777Z,30.50
2022-08-01T16:34:23.616Z,30.40
2022-08-01T16:36:52.655Z,30.30
2022-08-01T16:39:23.381Z,30.20
2022-08-01T16:41:55.298Z,30.20
2022-08-01T16:44:33.355Z,30.20
2022-08-01T16:47:04.791Z,30.20
2022-08-01T16:49:32.362Z,30.20
2022-08-01T16:51:59.509Z,30.20
2022-08-01T16:54:26.742Z,30.20
2022-08-01T16:56:54.261Z,30.10
2022-08-01T16:59:21.277Z,30.10
2022-08-01T17:02:00.166Z,30.10
2022-08-01T17:04:30.208Z,30.10
2022-08-01T17:06:57.326Z,30.00
2022-08-01T17:09:24.343Z,30.00
2022-08-01T17:11:51.440Z,30.00
2022-08-01T17:14:18.712Z,30.10
2022-08-01T17:16:46.475Z,30.10
2022-08-01T17:19:14.746Z,30.10
2022-08-01T17:21:42.335Z,30.20
2022-08-01T17:24:09.831Z,30.20
2022-08-01T17:26:36.841Z,30.20
2022-08-01T17:29:03.944Z,30.20
2022-08-01T17:31:31.577Z,30.20
2022-08-01T17:33:58.552Z,30.20
2022-08-01T17:36:35.342Z,30.10
2022-08-01T17:39:03.334Z,30.10
2022-08-01T17:41:30.345Z,30.10
2022-08-01T17:43:57.795Z,30.10
2022-08-01T17:46:24.817Z,30.00
2022-08-01T17:48:51.834Z,30.00
2022-08-01T17:51:22.670Z,30.10
2022-08-01T17:53:56.793Z,30.00
2022-08-01T17:56:25.526Z,30.00
2022-08-01T17:58:52.659Z,30.00
2022-08-01T18:01:19.966Z,29.90
2022-08-01T18:03:47.362Z,29.80
2022-08-01T18:06:17.102Z,29.80
2022-08-01T18:08:46.764Z,29.80
2022-08-01T18:11:14.268Z,29.70
2022-08-01T18:13:41.382Z,29.70
2022-08-01T18:16:09.110Z,29.70
2022-08-01T18:18:36.644Z,29.60
2022-08-01T18:21:04.043Z,29.60
2022-08-01T18:23:31.987Z,29.60
2022-08-01T18:26:01.505Z,29.50
2022-08-01T18:28:32.834Z,29.40
2022-08-01T18:31:01.015Z,29.30
2022-08-01T18:33:28.042Z,29.20
2022-08-01T18:36:01.957Z,29.00
2022-08-01T18:38:32.873Z,28.70
2022-08-01T18:41:01.011Z,28.60
2022-08-01T18:43:28.563Z,28.50
2022-08-01T18:45:58.293Z,28.50
2022-08-01T18:48:25.345Z,28.40
2022-08-01T18:50:54.066Z,28.30
2022-08-01T18:53:23.643Z,28.30
2022-08-01T18:55:50.745Z,28.20
2022-08-01T18:58:17.762Z,28.00
2022-08-01T19:00:44.882Z,27.90
2022-08-01T19:03:13.612Z,27.90
2022-08-01T19:05:40.779Z,28.00
2022-08-01T19:08:08.315Z,27.90
2022-08-01T19:10:41.737Z,27.60
2022-08-01T19:13:08.913Z,27.40
2022-08-01T19:15:36.098Z,27.10
2022-08-01T19:18:03.778Z,27.10
2022-08-01T19:20:30.861Z,27.00
2022-08-01T19:22:57.899Z,27.00
2022-08-01T19:25:25.182Z,27.10
2022-08-01T19:27:52.462Z,27.10
2022-08-01T19:30:19.575Z,27.10
2022-08-01T19:32:47.398Z,27.20
2022-08-01T19:35:15.257Z,27.00
2022-08-01T19:37:47.200Z,26.90
2022-08-01T19:40:27.412Z,26.80
2022-08-01T19:42:56.587Z,26.60
2022-08-01T19:45:24.680Z,26.40
2022-08-01T19:47:57.044Z,26.20
2022-08-01T19:50:28.272Z,26.10
2022-08-01T19:52:55.973Z,26.00
2022-08-01T19:55:26.988Z,25.80
2022-08-01T19:58:24.151Z,25.70
2022-08-01T20:00:42.860Z,25.70
2022-08-01T20:03:10.199Z,25.70
2022-08-01T20:05:38.710Z,25.70
2022-08-01T20:08:06.771Z,25.80
2022-08-01T20:10:35.746Z,25.80
2022-08-01T20:13:03.103Z,25.80
2022-08-01T20:15:30.336Z,25.80
2022-08-01T20:17:58.214Z,25.70
2022-08-01T20:20:25.617Z,25.80
2022-08-01T20:22:53.717Z,25.70
2022-08-01T20:25:22.434Z,25.70
2022-08-01T20:27:49.557Z,25.60
2022-08-01T20:30:16.563Z,25.70
2022-08-01T20:32:46.717Z,25.70
2022-08-01T20:35:16.036Z,25.70
2022-08-01T20:38:04.144Z,25.70
2022-08-01T20:40:30.839Z,25.80
2022-08-01T20:42:58.290Z,25.90
2022-08-01T20:45:29.025Z,26.00
2022-08-01T20:47:56.217Z,26.10
2022-08-01T20:50:54.212Z,26.10
2022-08-01T20:53:23.595Z,26.20
2022-08-01T20:55:55.861Z,26.20
2022-08-01T20:58:27.320Z,26.30
2022-08-01T21:00:55.262Z,26.40
2022-08-01T21:03:23.690Z,26.40
2022-08-01T21:05:58.630Z,26.40
2022-08-01T21:08:35.295Z,26.40
2022-08-01T21:11:03.338Z,26.40
2022-08-01T21:13:38.134Z,26.40
2022-08-01T21:16:22.526Z,26.40
2022-08-01T21:21:45.673Z,26.40
2022-08-01T21:24:19.333Z,26.40
2022-08-01T21:26:46.630Z,26.40
2022-08-01T21:29:14.145Z,26.30
2022-08-01T21:31:41.646Z,26.30
2022-08-01T21:34:08.944Z,26.30
2022-08-01T21:36:36.313Z,26.30
2022-08-01T21:39:05.307Z,26.30
2022-08-01T21:42:01.313Z,26.30
2022-08-01T21:44:19.884Z,26.30
2022-08-01T21:46:48.132Z,26.30
2022-08-01T21:49:15.346Z,26.20
2022-08-01T21:51:45.605Z,26.20
2022-08-01T21:54:37.826Z,26.10
2022-08-01T21:57:04.786Z,26.10
2022-08-01T21:59:44.386Z,26.00
2022-08-01T22:02:16.175Z,26.00
2022-08-01T22:04:53.057Z,25.90
2022-08-01T22:07:20.881Z,25.90
2022-08-01T22:09:51.485Z,25.80
2022-08-01T22:12:19.716Z,25.20
2022-08-01T22:14:53.165Z,25.80
2022-08-01T22:17:22.601Z,25.70
2022-08-01T22:19:55.052Z,25.70
2022-08-01T22:22:44.169Z,25.70
2022-08-01T22:25:10.741Z,25.60
2022-08-01T22:28:08.383Z,25.60
2022-08-01T22:30:29.201Z,25.50
2022-08-01T22:33:15.505Z,25.50
2022-08-01T22:35:47.597Z,25.50
2022-08-01T22:38:16.496Z,25.40
2022-08-01T22:40:50.856Z,25.40
2022-08-01T22:43:23.729Z,25.40
2022-08-01T22:45:59.641Z,25.30
2022-08-01T22:48:34.714Z,25.30
2022-08-01T22:51:06.317Z,25.30
2022-08-01T22:53:36.058Z,25.30
2022-08-01T22:56:05.118Z,25.30
2022-08-01T22:58:33.608Z,25.20
